Time;durP1;ratioP1;P1;durP2;ratioP2;P2;SDS_P1;SDS_P2;PMS_P1;PMS_P2;Temp;Humidity;BMP_temperature;BMP_pressure;BME280_temperature;BME280_humidity;BME280_pressure;Samples;Min_cycle;Max_cycle;Signal;HPM_P1;HPM_P2
2022/07/08 00:00:00;;;;;;;43.35;33.20;;;;;;;-143.10;100.00;51073.34;4782641;29;20594;-64
2022/07/08 00:02:47;;;;;;;50.83;35.65;;;;;;;-143.10;100.00;51081.16;4781115;29;20384;-64
2022/07/08 00:05:43;;;;;;;40.35;32.55;;;;;;;-143.10;100.00;51081.16;4778283;29;20055;-63
2022/07/08 00:08:19;;;;;;;42.45;32.85;;;;;;;-143.10;100.00;51053.75;4780716;29;20135;-65
2022/07/08 00:11:09;;;;;;;48.10;33.53;;;;;;;-143.10;100.00;51077.25;4781133;30;20075;-64
2022/07/08 00:13:52;;;;;;;44.55;32.17;;;;;;;-143.10;100.00;51045.91;4781982;30;20070;-64
2022/07/08 00:16:47;;;;;;;40.05;31.35;;;;;;;-143.10;100.00;51061.59;4781173;30;20324;-64
2022/07/08 00:19:24;;;;;;;43.65;32.88;;;;;;;-143.10;100.00;51104.66;4781387;30;20620;-63
2022/07/08 00:22:13;;;;;;;43.35;31.98;;;;;;;-143.10;100.00;51085.06;4781595;30;20075;-65
2022/07/08 00:24:57;;;;;;;43.30;32.63;;;;;;;-143.10;100.00;51077.25;4780079;30;20136;-65
2022/07/08 00:27:46;;;;;;;42.95;32.60;;;;;;;-143.10;100.00;51071.38;4779366;29;20385;-65
2022/07/08 00:30:29;;;;;;;45.30;34.83;;;;;;;-143.10;100.00;51079.19;4780661;30;20071;-65
2022/07/08 00:33:19;;;;;;;46.83;33.78;;;;;;;-143.10;100.00;51077.25;4765502;30;20155;-65
2022/07/08 00:36:02;;;;;;;44.58;32.75;;;;;;;-143.10;100.00;51063.53;4780341;30;20085;-65
2022/07/08 00:38:53;;;;;;;48.78;33.53;;;;;;;-143.10;100.00;51057.66;4766341;30;20063;-65
2022/07/08 00:41:48;;;;;;;41.15;30.70;;;;;;;-143.10;100.00;51055.72;4780526;29;21285;-65
2022/07/08 00:44:25;;;;;;;41.78;31.52;;;;;;;-143.10;100.00;51073.34;4781011;29;20078;-65
2022/07/08 00:47:14;;;;;;;40.90;32.08;;;;;;;-143.10;100.00;51096.81;4791801;29;20551;-65
2022/07/08 00:49:57;;;;;;;42.65;32.65;;;;;;;-143.10;100.00;51061.59;4799352;29;20074;-65
2022/07/08 00:53:05;;;;;;;43.58;31.55;;;;;;;-143.10;100.00;51061.59;4787479;29;20047;-64
2022/07/08 00:55:54;;;;;;;36.60;29.20;;;;;;;-143.10;100.00;51038.09;4780751;30;20445;-65
2022/07/08 00:58:44;;;;;;;46.22;31.42;;;;;;;-143.10;100.00;51036.13;4779545;29;20071;-65
2022/07/08 01:01:27;;;;;;;43.83;31.13;;;;;;;-143.10;100.00;51053.75;4781152;29;20075;-65
2022/07/08 01:04:17;;;;;;;48.72;34.00;;;;;;;-143.10;100.00;51087.03;4780886;30;20066;-65
2022/07/08 01:07:01;;;;;;;43.22;32.42;;;;;;;-143.10;100.00;51057.66;4781382;30;20082;-65
2022/07/08 01:09:50;;;;;;;45.67;33.30;;;;;;;-143.10;100.00;51063.53;4772371;30;20440;-65
2022/07/08 01:12:34;;;;;;;45.92;32.83;;;;;;;-143.10;100.00;51085.06;4780123;30;20169;-64
2022/07/08 01:15:23;;;;;;;43.78;33.35;;;;;;;-143.10;100.00;51012.63;4780093;30;20673;-65
2022/07/08 01:18:06;;;;;;;40.05;31.67;;;;;;;-143.10;100.00;51069.41;4781165;30;20089;-66
2022/07/08 01:20:56;;;;;;;49.85;34.60;;;;;;;-143.10;100.00;51057.66;4780644;30;20522;-65
2022/07/08 01:23:46;;;;;;;45.30;34.03;;;;;;;-143.10;100.00;51053.75;4779975;30;21314;-65
2022/07/08 01:26:29;;;;;;;49.90;35.65;;;;;;;-143.10;100.00;51065.50;4780856;30;20075;-65
2022/07/08 01:29:26;;;;;;;48.40;36.38;;;;;;;-143.10;100.00;51051.78;4789220;29;20626;-66
2022/07/08 01:32:03;;;;;;;53.90;36.00;;;;;;;-143.10;100.00;51075.28;4798729;29;20078;-65
2022/07/08 01:34:58;;;;;;;43.92;34.00;;;;;;;-143.10;100.00;51055.72;4798149;29;20070;-66
2022/07/08 01:37:48;;;;;;;57.70;36.50;;;;;;;-143.10;100.00;51085.06;4797978;29;20082;-65
2022/07/08 01:40:31;;;;;;;52.65;38.03;;;;;;;-143.10;100.00;51077.25;4766566;29;20082;-65
2022/07/08 01:43:27;;;;;;;52.03;36.80;;;;;;;-143.10;100.00;51073.34;4779967;30;20079;-65
2022/07/08 01:46:04;;;;;;;53.30;37.88;;;;;;;-143.10;100.00;51051.78;4779072;30;20090;-65
2022/07/08 01:48:59;;;;;;;54.53;38.53;;;;;;;-143.10;100.00;51077.25;4779630;30;20078;-65
2022/07/08 01:51:55;;;;;;;67.47;43.25;;;;;;;-143.10;100.00;51040.03;4778724;30;20351;-66
2022/07/08 01:54:32;;;;;;;59.90;41.90;;;;;;;-143.10;100.00;51077.25;4778794;30;21317;-65
2022/07/08 01:57:21;;;;;;;59.10;40.10;;;;;;;-143.10;100.00;51087.03;4789873;29;20154;-65
2022/07/08 02:00:06;;;;;;;61.47;40.55;;;;;;;-143.10;100.00;51087.03;4797836;29;20074;-65
2022/07/08 02:02:58;;;;;;;61.42;42.67;;;;;;;-143.10;100.00;51090.94;4795820;29;20390;-65
2022/07/08 02:05:41;;;;;;;67.85;44.53;;;;;;;-143.10;100.00;51047.88;4779951;30;21282;-65
2022/07/08 02:08:37;;;;;;;63.20;42.60;;;;;;;-143.10;100.00;51096.81;4780775;30;20079;-63
2022/07/08 02:14:27;;;;;;;61.88;41.70;;;;;;;-143.10;100.00;51092.91;4779472;30;20079;-63
2022/07/08 02:17:04;;;;;;;58.70;39.95;;;;;;;-143.10;100.00;51079.19;4780398;30;20074;-65
2022/07/08 02:20:00;;;;;;;65.90;40.58;;;;;;;-143.10;100.00;51053.75;4778644;30;20498;-64
2022/07/08 02:22:36;;;;;;;58.65;40.58;;;;;;;-143.10;100.00;51042.00;4778763;30;20345;-64
2022/07/08 02:25:25;;;;;;;57.80;37.85;;;;;;;-143.10;100.00;51069.41;4779217;29;20419;-64
2022/07/08 02:28:08;;;;;;;53.13;38.38;;;;;;;-143.10;100.00;51045.91;4782463;30;20067;-64
2022/07/08 02:30:58;;;;;;;54.55;37.17;;;;;;;-143.10;100.00;51085.06;4782544;29;20075;-64
2022/07/08 02:33:42;;;;;;;50.28;34.60;;;;;;;-143.10;100.00;51087.03;4781581;29;20139;-64
2022/07/08 02:36:31;;;;;;;49.33;35.22;;;;;;;-143.10;100.00;51059.63;4781929;29;20071;-64
2022/07/08 02:39:22;;;;;;;41.25;31.33;;;;;;;-143.10;100.00;51045.91;4797169;29;20074;-64
2022/07/08 02:42:12;;;;;;;43.88;32.90;;;;;;;-143.10;100.00;51045.91;4785579;29;20070;-64
2022/07/08 02:45:01;;;;;;;41.67;31.98;;;;;;;-143.10;100.00;51057.66;4799259;29;20409;-64
2022/07/08 02:47:44;;;;;;;39.45;31.05;;;;;;;-143.10;100.00;51069.41;4799550;29;20446;-63
2022/07/08 02:50:35;;;;;;;40.78;31.50;;;;;;;-143.10;100.00;51055.72;4799401;29;20176;-64
2022/07/08 02:53:23;;;;;;;47.45;33.30;;;;;;;-143.10;100.00;51034.19;4799813;29;20089;-65
2022/07/08 02:56:07;;;;;;;46.40;33.03;;;;;;;-143.10;100.00;51032.22;4800028;29;20067;-65
2022/07/08 02:58:57;;;;;;;46.72;34.33;;;;;;;-143.10;100.00;51073.34;4799515;29;21416;-64
2022/07/08 03:01:54;;;;;;;48.75;34.50;;;;;;;-143.10;100.00;51053.75;4784924;29;20075;-65
2022/07/08 03:04:29;;;;;;;45.70;34.10;;;;;;;-143.10;100.00;51067.47;4780271;29;20375;-64
2022/07/08 03:07:26;;;;;;;53.15;35.42;;;;;;;-143.10;100.00;51069.41;4781482;29;20835;-64
2022/07/08 03:10:03;;;;;;;44.15;32.95;;;;;;;-143.10;100.00;51053.75;4781644;30;20082;-63
2022/07/08 03:12:52;;;;;;;44.15;33.58;;;;;;;-143.10;100.00;51067.47;4781941;30;20601;-64
2022/07/08 03:15:35;;;;;;;41.17;31.42;;;;;;;-143.10;100.00;51057.66;4780742;30;20178;-64
2022/07/08 03:18:25;;;;;;;43.05;30.60;;;;;;;-143.10;100.00;51051.78;4776504;30;20810;-65
2022/07/08 03:21:09;;;;;;;36.25;29.27;;;;;;;-143.10;98.99;51014.59;4782173;30;20067;-65
2022/07/08 03:23:58;;;;;;;37.63;29.65;;;;;;;-143.10;98.99;51034.19;4782683;29;20151;-64
2022/07/08 03:26:48;;;;;;;41.08;28.73;;;;;;;-143.10;97.04;51014.59;4795369;29;20358;-65
2022/07/08 03:29:31;;;;;;;37.97;28.67;;;;;;;-143.10;97.00;51043.97;4794527;29;20071;-65
2022/07/08 03:32:23;;;;;;;32.80;27.10;;;;;;;-143.10;94.26;51018.50;4771511;30;20711;-65
2022/07/08 03:35:07;;;;;;;40.33;27.60;;;;;;;-143.10;91.81;51065.50;4759500;30;20164;-64
2022/07/08 03:37:59;;;;;;;32.45;25.15;;;;;;;-143.10;91.14;51034.19;4762241;30;20051;-66
2022/07/08 03:43:59;;;;;;;26.80;22.05;;;;;;;-143.10;88.62;51004.81;4764431;30;20475;-64
2022/07/08 03:46:42;;;;;;;27.50;23.17;;;;;;;-143.10;86.03;51022.44;4764182;30;20422;-64
2022/07/08 03:49:39;;;;;;;31.60;23.95;;;;;;;-143.10;84.27;51012.63;4764533;30;20071;-63
2022/07/08 03:52:15;;;;;;;30.77;22.15;;;;;;;-143.10;85.89;51010.69;4764177;30;20086;-65
2022/07/08 03:55:04;;;;;;;;;;;;;;;-143.10;83.54;51010.69;4765279;30;20083;-64
2022/07/08 03:57:47;;;;;;;31.17;22.38;;;;;;;-143.10;85.83;51004.81;4763681;30;20390;-64
2022/07/08 04:00:43;;;;;;;30.38;23.52;;;;;;;-143.10;83.42;51018.50;4769868;29;20358;-65
2022/07/08 04:03:19;;;;;;;30.90;23.98;;;;;;;-143.10;84.44;50998.94;4779968;29;20175;-63
2022/07/08 04:06:08;;;;;;;28.98;22.60;;;;;;;-143.10;83.20;51014.59;4781615;30;20075;-65
2022/07/08 04:08:51;;;;;;;35.08;24.45;;;;;;;-143.10;84.68;51010.69;4780944;30;20079;-64
2022/07/08 04:11:41;;;;;;;28.38;22.30;;;;;;;-143.10;80.06;50998.94;4779126;30;20148;-64
2022/07/08 04:14:31;;;;;;;24.23;21.27;;;;;;;-143.10;81.24;50998.94;4781168;30;20138;-64
2022/07/08 04:17:14;;;;;;;25.73;20.55;;;;;;;-143.10;80.98;50979.34;4781281;30;20104;-63
2022/07/08 04:20:04;;;;;;;27.85;22.25;;;;;;;-143.10;78.32;51022.44;4781724;30;20086;-63
2022/07/08 04:22:47;;;;;;;;;;;;;;;-143.10;80.44;50998.94;4781575;30;20354;-63
2022/07/08 04:25:36;;;;;;;28.00;20.67;;;;;;;-143.10;79.53;51006.75;4781188;30;20614;-65
2022/07/08 04:28:19;;;;;;;24.23;20.05;;;;;;;-143.10;80.92;51002.84;4781179;29;20074;-64
2022/07/08 04:31:09;;;;;;;25.65;19.58;;;;;;;-143.10;79.47;51038.09;4781010;30;20171;-64
2022/07/08 04:33:55;;;;;;;22.27;19.48;;;;;;;-143.10;79.82;50987.19;4746968;30;20075;-65
2022/07/08 04:36:45;;;;;;;25.15;19.13;;;;;;;-143.10;79.19;50979.34;4762648;30;20316;-67
2022/07/08 04:39:28;;;;;;;25.40;19.75;;;;;;;-143.10;78.19;50991.09;4762071;30;20425;-67
2022/07/08 04:42:25;;;;;;;23.25;20.38;;;;;;;-143.10;79.83;50996.97;4769078;29;20075;-67
2022/07/08 04:45:21;;;;;;;24.92;20.75;;;;;;;-143.10;79.42;51006.75;4779431;29;20081;-66
2022/07/08 04:47:57;;;;;;;29.35;21.92;;;;;;;-143.10;78.85;50991.09;4797165;29;20077;-65
2022/07/08 04:50:47;;;;;;;;;;;;;;;-143.10;78.41;51012.63;4783075;29;20323;-67
2022/07/08 04:53:30;;;;;;;23.35;20.15;;;;;;;-143.10;79.38;51010.69;4784897;29;19961;-66
2022/07/08 04:56:26;;;;;;;27.45;22.15;;;;;;;-143.10;80.19;50991.09;4779793;29;20079;-66
2022/07/08 04:59:03;;;;;;;26.77;20.50;;;;;;;-143.10;80.34;50975.44;4780052;29;20138;-66
2022/07/08 05:01:52;;;;;;;;;;;;;;;-143.10;75.72;50971.53;4781711;30;20577;-67
2022/07/08 05:04:41;;;;;;;23.73;21.00;;;;;;;-143.10;76.02;51006.75;4780430;30;19960;-67
2022/07/08 05:07:24;;;;;;;27.17;20.65;;;;;;;-143.10;76.48;51008.72;4780634;30;20490;-65
2022/07/08 05:10:15;;;;;;;28.70;21.05;;;;;;;-143.10;77.91;51006.75;4780330;29;20454;-67
2022/07/08 05:12:59;;;;;;;26.35;21.05;;;;;;;-143.10;75.81;50995.03;4781267;29;20135;-66
2022/07/08 05:15:49;;;;;;;23.33;19.55;;;;;;;-143.10;77.06;50957.81;4779813;29;21279;-69
2022/07/08 05:18:45;;;;;;;32.70;21.17;;;;;;;-143.10;78.28;51010.69;4780003;29;20797;-67
2022/07/08 05:21:21;;;;;;;29.90;22.45;;;;;;;-143.10;74.18;51002.84;4780099;29;20116;-65
2022/07/08 05:24:12;;;;;;;23.27;19.40;;;;;;;-143.10;72.07;50989.16;4775037;29;20067;-65
2022/07/08 05:26:55;;;;;;;24.05;21.55;;;;;;;-143.10;73.20;50995.03;4775003;29;20079;-65
2022/07/08 05:29:44;;;;;;;28.13;21.23;;;;;;;-143.10;78.24;50983.28;4779769;29;20346;-68
2022/07/08 05:32:34;;;;;;;22.77;20.20;;;;;;;-143.10;71.44;50998.94;4777269;29;20266;-65
2022/07/08 05:35:17;;;;;;;23.95;20.13;;;;;;;-143.10;76.37;50975.44;4778352;29;20105;-64
2022/07/08 05:38:06;;;;;;;27.27;20.00;;;;;;;-143.10;70.73;50985.22;4778728;29;20075;-65
2022/07/08 05:40:49;;;;;;;25.08;19.90;;;;;;;-143.10;70.35;51014.59;4779483;29;20288;-65
2022/07/08 05:43:46;;;;;;;25.13;18.88;;;;;;;-143.10;72.14;50944.13;4787877;29;20321;-65
2022/07/08 05:46:35;;;;;;;20.88;18.67;;;;;;;-143.10;70.40;50991.09;4768119;29;20132;-65
2022/07/08 05:49:25;;;;;;;24.35;20.00;;;;;;;-143.10;70.98;50975.44;4762772;30;20082;-66
2022/07/08 05:52:15;;;;;;;30.05;19.20;;;;;;;-143.10;69.70;50995.03;4779790;29;20075;-64
2022/07/08 05:55:04;;;;;;;23.45;18.58;;;;;;;-143.10;70.10;50995.03;4780211;29;20078;-65
2022/07/08 05:57:47;;;;;;;25.98;21.15;;;;;;;-143.10;71.56;50975.44;4779037;29;21988;-64
2022/07/08 06:00:37;;;;;;;26.25;20.42;;;;;;;-143.10;71.70;51010.69;4778763;29;20638;-66
2022/07/08 06:03:20;;;;;;;;;;;;;;;-143.10;70.25;50955.88;4780130;29;20103;-66
2022/07/08 06:06:11;;;;;;;19.20;17.13;;;;;;;-143.10;75.25;50967.59;4781150;29;20342;-64
2022/07/08 06:09:01;;;;;;;24.73;19.38;;;;;;;-143.10;67.78;50991.09;4782669;29;20083;-66
2022/07/08 06:11:44;;;;;;;21.83;19.08;;;;;;;-143.10;67.83;50998.94;4768681;30;20351;-67
2022/07/08 06:14:34;;;;;;;28.70;20.50;;;;;;;-143.10;72.42;50944.13;4779994;29;20560;-65
2022/07/08 06:17:15;;;;;;;;;;;;;;;-143.10;70.46;50985.22;4783755;29;20086;-65
2022/07/08 06:20:05;;;;;;;22.45;19.98;;;;;;;-143.10;72.66;50967.59;4783847;30;19988;-68
2022/07/08 06:22:50;;;;;;;26.40;22.45;;;;;;;-143.10;67.36;50959.78;4782492;30;20446;-67
2022/07/08 06:25:45;;;;;;;27.30;21.63;;;;;;;-143.10;70.84;50942.16;4778974;29;20270;-66
2022/07/08 06:28:22;;;;;;;24.48;21.20;;;;;;;-143.10;68.97;50967.59;4773892;29;20075;-66
2022/07/08 06:31:12;;;;;;;27.02;19.75;;;;;;;-143.10;69.25;50977.41;4442157;29;10000564;-68
2022/07/08 06:33:59;;;;;;;26.92;20.98;;;;;;;-143.10;66.72;50965.66;4776240;29;20138;-69
2022/07/08 06:36:49;;;;;;;29.75;21.88;;;;;;;-143.10;70.35;50995.03;4779330;29;20531;-70
2022/07/08 06:39:39;;;;;;;25.60;20.13;;;;;;;-143.10;68.15;50985.22;4765428;30;20120;-66
2022/07/08 06:42:22;;;;;;;21.65;18.58;;;;;;;-143.10;68.89;50993.06;4778186;29;20555;-67
2022/07/08 06:45:21;;;;;;;23.10;18.67;;;;;;;-143.10;69.19;51008.72;4776185;29;20083;-68
2022/07/08 06:48:10;;;;;;;21.45;18.77;;;;;;;-143.10;70.37;51002.84;4800659;29;20074;-68
2022/07/08 06:50:59;;;;;;;20.90;17.90;;;;;;;-143.10;66.87;50979.34;4779780;29;20083;-68
2022/07/08 06:56:51;;;;;;;18.90;16.92;;;;;;;-143.10;69.42;50987.19;4779395;29;20082;-68
2022/07/08 06:59:38;;;;;;;25.58;18.13;;;;;;;-143.10;64.09;50993.06;4780132;29;21211;-69
2022/07/08 07:02:47;;;;;;;22.30;16.17;;;;;;;-143.10;69.08;50965.66;4771534;29;20219;-68
2022/07/08 07:05:30;;;;;;;21.55;16.80;;;;;;;-143.10;66.69;50951.94;4782032;29;20163;-69
2022/07/08 07:08:20;;;;;;;21.20;17.17;;;;;;;-143.10;63.56;50995.03;4765125;30;20124;-68
2022/07/08 07:11:03;;;;;;;;;;;;;;;-143.10;64.18;50950.00;4782876;29;20079;-69
2022/07/08 07:13:53;;;;;;;20.85;17.10;;;;;;;-143.10;67.02;50975.44;4780662;30;20537;-69
2022/07/08 07:16:37;;;;;;;127.93;25.08;;;;;;;-143.10;65.67;50951.94;4782049;29;20138;-69
2022/07/08 07:19:27;;;;;;;18.92;16.23;;;;;;;-143.10;68.73;50967.59;4767125;29;20078;-70
2022/07/08 07:22:10;;;;;;;19.98;17.17;;;;;;;-143.10;69.44;50944.13;4780523;29;20054;-69
2022/07/08 07:24:59;;;;;;;21.55;18.70;;;;;;;-143.10;67.15;50987.19;4781208;29;20151;-70
2022/07/08 07:27:42;;;;;;;;;;;;;;;-143.10;66.45;50959.78;4782736;29;20449;-68
2022/07/08 07:30:31;;;;;;;29.58;18.92;;;;;;;-143.10;67.78;50996.97;4779764;29;19979;-69
2022/07/08 07:33:14;;;;;;;;;;;;;;;-143.10;68.82;50965.66;4776735;29;20563;-68
2022/07/08 07:36:02;;;;;;;21.73;17.70;;;;;;;-143.10;73.11;50955.88;4782489;29;20036;-69
2022/07/08 07:38:45;;;;;;;22.50;18.48;;;;;;;-143.10;70.62;50967.59;4761218;30;20109;-70
2022/07/08 07:41:34;;;;;;;24.45;20.42;;;;;;;-143.10;68.58;50967.59;4790416;29;20914;-69
2022/07/08 07:44:24;;;;;;;23.35;19.17;;;;;;;-143.10;69.17;51008.72;4752006;30;20498;-67
2022/07/08 07:47:14;;;;;;;21.58;18.10;;;;;;;-143.10;72.05;50987.19;4775647;29;20849;-65
2022/07/08 07:50:04;;;;;;;27.13;19.70;;;;;;;-143.10;68.41;50983.28;4763655;30;21507;-65
2022/07/08 07:52:53;;;;;;;21.73;19.05;;;;;;;-143.10;72.65;50948.03;4767341;30;20545;-66
2022/07/08 07:55:36;;;;;;;;;;;;;;;-143.10;73.09;50975.44;4780138;29;20456;-68
2022/07/08 07:58:25;;;;;;;22.60;18.73;;;;;;;-143.10;72.97;50977.41;4779258;29;20429;-69
2022/07/08 08:01:08;;;;;;;21.38;18.10;;;;;;;-143.10;70.76;50965.66;4790968;29;20163;-67
2022/07/08 08:03:58;;;;;;;23.65;20.17;;;;;;;-143.10;69.80;50971.53;4771363;29;20075;-65
2022/07/08 08:06:41;;;;;;;22.08;19.65;;;;;;;-143.10;77.81;50936.28;4776920;29;20298;-67
2022/07/08 08:09:36;;;;;;;28.27;21.98;;;;;;;-143.10;71.45;50977.41;4786131;29;22006;-69
2022/07/08 08:12:19;;;;;;;25.73;21.02;;;;;;;-143.10;72.28;50942.16;4779633;29;20319;-68
2022/07/08 08:15:09;;;;;;;26.98;19.67;;;;;;;-143.10;68.42;50953.91;4782459;29;20074;-70
2022/07/08 08:18:00;;;;;;;28.70;22.27;;;;;;;-143.10;66.76;50959.78;4778834;29;20134;-68
2022/07/08 08:20:49;;;;;;;26.80;20.48;;;;;;;-143.10;68.38;50987.19;4778732;29;20238;-66
2022/07/08 08:23:40;;;;;;;26.77;21.45;;;;;;;-143.10;64.65;50967.59;4782535;29;20520;-67
2022/07/08 08:26:22;;;;;;;;;;;;;;;-143.10;66.24;50948.03;4779085;29;20086;-69
2022/07/08 08:29:12;;;;;;;28.60;21.20;;;;;;;-143.10;68.07;50971.53;4777703;29;19976;-68
2022/07/08 08:32:07;;;;;;;28.50;21.27;;;;;;;-143.10;69.59;50957.81;4777679;29;20070;-67
2022/07/08 08:34:50;;;;;;;;;;;;;;;-143.10;70.14;50940.19;4776049;29;20194;-68
2022/07/08 08:37:39;;;;;;;23.40;20.83;;;;;;;-143.10;69.51;50955.88;4779861;29;19998;-68
2022/07/08 08:40:23;;;;;;;24.15;21.65;;;;;;;-143.10;72.38;50969.56;4771067;30;20781;-67
2022/07/08 08:43:13;;;;;;;30.67;23.60;;;;;;;-143.10;70.12;50971.53;4776731;29;20079;-66
2022/07/08 08:46:11;;;;;;;26.65;23.58;;;;;;;-143.10;70.61;50944.13;4777030;29;20081;-67
2022/07/08 08:49:08;;;;;;;29.98;24.25;;;;;;;-143.10;66.76;50955.88;4776454;29;20078;-67
2022/07/08 08:52:01;;;;;;;32.08;23.48;;;;;;;-143.10;66.18;50955.88;4772541;29;20372;-68
2022/07/08 08:54:52;;;;;;;29.27;24.42;;;;;;;-143.10;70.33;50951.94;4776882;29;20200;-67
2022/07/08 08:57:43;;;;;;;27.35;23.45;;;;;;;-143.10;71.32;50957.81;4774739;29;20446;-70
2022/07/08 09:00:26;;;;;;;30.52;23.20;;;;;;;-143.10;67.04;50961.72;4780960;30;20078;-67
2022/07/08 09:03:17;;;;;;;35.08;24.60;;;;;;;-143.10;68.09;50932.38;4780319;29;20074;-69
2022/07/08 09:06:07;;;;;;;34.38;25.17;;;;;;;-143.10;66.17;50963.69;4772431;30;20112;-68
2022/07/08 09:08:42;;;;;;;;;;;;;;;-143.10;66.21;50914.75;4789330;29;20079;-68
2022/07/08 09:11:35;;;;;;;;;;;;;;;-143.10;65.69;50957.81;4780229;29;20400;-68
2022/07/08 09:14:27;;;;;;;30.13;25.33;;;;;;;-143.10;68.84;50967.59;4780608;30;20037;-66
2022/07/08 09:17:17;;;;;;;29.17;25.98;;;;;;;-143.10;70.95;50948.03;4765856;30;20078;-67
2022/07/08 09:20:07;;;;;;;26.85;23.95;;;;;;;-143.10;69.52;50977.41;4781393;29;20082;-68
2022/07/08 09:22:51;;;;;;;29.08;25.35;;;;;;;-143.10;67.58;50928.44;4779906;29;20134;-67
2022/07/08 09:25:40;;;;;;;31.77;26.58;;;;;;;-143.10;65.91;50944.13;4779223;30;20368;-67
2022/07/08 09:28:37;;;;;;;29.50;24.88;;;;;;;-143.10;64.44;50948.03;4779428;29;20118;-68
2022/07/08 09:31:26;;;;;;;29.38;26.38;;;;;;;-143.10;65.00;50998.94;4778788;29;20106;-67
2022/07/08 09:34:11;;;;;;;27.67;24.70;;;;;;;-143.10;70.83;50930.41;4774755;29;20071;-67
2022/07/08 09:37:02;;;;;;;37.90;24.63;;;;;;;-143.10;69.42;50944.13;4777936;29;20067;-68
2022/07/08 09:39:46;;;;;;;33.85;27.20;;;;;;;-143.10;69.76;50936.28;4445702;29;10000240;-68
2022/07/08 09:42:45;;;;;;;32.75;24.90;;;;;;;-143.10;66.90;50969.56;4775109;29;20074;-69
2022/07/08 09:45:32;;;;;;;34.05;25.85;;;;;;;-143.10;67.93;50928.44;4776081;29;20083;-69
2022/07/08 09:48:30;;;;;;;32.33;27.60;;;;;;;-143.10;72.49;50932.38;4774688;29;20450;-69
2022/07/08 09:51:22;;;;;;;36.78;27.10;;;;;;;-143.10;72.12;50908.88;4772459;29;20779;-68
2022/07/08 09:54:17;;;;;;;38.05;28.23;;;;;;;-143.10;70.42;50963.69;4777233;29;20047;-69
2022/07/08 09:57:09;;;;;;;32.97;27.60;;;;;;;-143.10;72.51;50942.16;4764563;29;20252;-67
2022/07/08 10:00:00;;;;;;;41.25;28.77;;;;;;;-143.10;69.64;50936.28;4442121;29;10000309;-67
2022/07/08 10:02:47;;;;;;;32.35;28.52;;;;;;;-143.10;70.93;50942.16;4777303;29;20104;-69
2022/07/08 10:05:37;;;;;;;38.03;28.05;;;;;;;-143.10;71.83;50948.03;4774079;29;20118;-68
2022/07/08 10:08:19;;;;;;;40.80;28.70;;;;;;;-143.10;69.73;50967.59;4780018;29;20079;-67
2022/07/08 10:11:13;;;;;;;31.63;27.15;;;;;;;-143.10;69.59;50948.03;4775260;29;20094;-67
2022/07/08 10:14:08;;;;;;;33.70;26.40;;;;;;;-143.10;72.79;50957.81;4760888;30;20074;-68
2022/07/08 10:16:54;;;;;;;34.03;26.23;;;;;;;-143.10;69.82;50959.78;4777114;29;20368;-68
2022/07/08 10:19:46;;;;;;;32.25;26.92;;;;;;;-143.10;70.35;50985.22;4777708;29;20343;-67
2022/07/08 10:22:37;;;;;;;35.88;26.70;;;;;;;-143.10;70.33;50963.69;4761684;29;20410;-67
2022/07/08 10:25:21;;;;;;;35.10;27.60;;;;;;;-143.10;72.25;50955.88;4776569;29;20075;-70
2022/07/08 10:28:16;;;;;;;35.30;28.42;;;;;;;-143.10;68.69;50944.13;4775171;29;20079;-71
2022/07/08 10:31:26;;;;;;;34.25;28.70;;;;;;;-143.10;66.30;50961.72;4776671;29;20071;-66
2022/07/08 10:34:10;;;;;;;33.63;27.35;;;;;;;-143.10;70.76;50965.66;4780569;29;20427;-66
2022/07/08 10:37:08;;;;;;;31.42;25.63;;;;;;;-143.10;72.56;50940.19;4777419;29;20109;-67
2022/07/08 10:39:47;;;;;;;27.48;23.80;;;;;;;-143.10;74.58;50955.88;4761879;30;20231;-71
2022/07/08 10:42:44;;;;;;;35.45;27.08;;;;;;;-143.10;76.63;50963.69;4777197;29;20182;-68
2022/07/08 10:45:27;;;;;;;33.70;27.17;;;;;;;-143.10;77.27;50971.53;4777702;29;20112;-68
2022/07/08 10:48:17;;;;;;;36.42;27.13;;;;;;;-143.10;78.58;50957.81;4776493;29;20094;-66
2022/07/08 10:51:01;;;;;;;34.90;27.65;;;;;;;-143.10;79.75;50971.53;4781860;30;20159;-63
2022/07/08 10:54:25;;;;;;;32.40;26.45;;;;;;;-143.10;79.93;50977.41;4780528;29;20777;-68
2022/07/08 10:57:12;;;;;;;32.15;27.35;;;;;;;-143.10;80.54;50979.34;4780467;29;20147;-66
2022/07/08 11:00:11;;;;;;;34.92;26.05;;;;;;;-143.10;83.08;50973.47;4763174;29;20078;-64
2022/07/08 11:02:50;;;;;;;33.15;27.40;;;;;;;-143.10;86.53;50985.22;4778565;29;20373;-65
2022/07/08 11:05:48;;;;;;;33.10;25.90;;;;;;;-143.10;93.41;50998.94;4780096;29;21650;-63
2022/07/08 11:08:25;;;;;;;29.77;25.00;;;;;;;-143.10;92.13;50989.16;4779348;29;20067;-69
2022/07/08 11:11:22;;;;;;;32.72;25.80;;;;;;;-143.10;93.70;50985.22;4776429;29;20556;-65
2022/07/08 11:14:00;;;;;;;26.88;23.02;;;;;;;-143.10;95.78;51000.91;4767466;30;20114;-65
2022/07/08 11:16:49;;;;;;;26.33;22.85;;;;;;;-143.10;95.95;51006.75;4779267;30;20087;-64
2022/07/08 11:19:40;;;;;;;28.75;22.13;;;;;;;-143.10;94.35;50998.94;4781911;29;21448;-66
2022/07/08 11:22:24;;;;;;;25.65;23.05;;;;;;;-143.10;93.44;50965.66;4772241;29;20079;-67
2022/07/08 11:25:18;;;;;;;28.20;24.17;;;;;;;-143.10;94.95;51004.81;4774183;29;20078;-66
2022/07/08 11:27:55;;;;;;;30.05;24.83;;;;;;;-143.10;92.48;50983.28;4761723;29;20384;-67
2022/07/08 11:30:44;;;;;;;27.17;24.15;;;;;;;-143.10;94.03;50979.34;4772912;29;20146;-67
2022/07/08 11:33:45;;;;;;;32.28;25.17;;;;;;;-143.10;94.80;51010.69;4778828;29;20132;-68
2022/07/08 11:36:36;;;;;;;31.50;26.13;;;;;;;-143.10;90.71;51014.59;4760837;29;20188;-67
2022/07/08 11:39:19;;;;;;;35.10;27.95;;;;;;;-143.10;90.48;51000.91;4774661;29;20142;-66
2022/07/08 11:42:15;;;;;;;30.52;26.77;;;;;;;-143.10;93.33;50987.19;4775719;29;20173;-67
2022/07/08 11:44:52;;;;;;;32.08;27.48;;;;;;;-143.10;92.58;51002.84;4779079;29;20071;-68
2022/07/08 11:47:49;;;;;;;32.63;26.45;;;;;;;-143.10;92.33;50975.44;4774660;29;20143;-68
2022/07/08 11:50:48;;;;;;;30.95;25.45;;;;;;;-143.10;89.16;50959.78;4776979;29;20285;-65
2022/07/08 11:53:31;;;;;;;29.83;23.70;;;;;;;-143.10;89.55;50987.19;4778785;30;20078;-67
2022/07/08 11:56:21;;;;;;;29.40;22.38;;;;;;;-143.10;89.79;50959.78;4114800;29;10000833;-69
2022/07/08 11:59:03;;;;;;;25.70;21.88;;;;;;;-143.10;89.26;50985.22;4761716;30;20143;-66
2022/07/08 12:01:54;;;;;;;25.17;22.58;;;;;;;-143.10;90.48;50975.44;4774173;30;20256;-66
2022/07/08 12:04:38;;;;;;;27.70;20.58;;;;;;;-143.10;90.62;50979.34;4774522;29;21228;-67
2022/07/08 12:07:29;;;;;;;25.13;21.23;;;;;;;-143.10;89.49;50969.56;4777545;29;22300;-69
2022/07/08 12:10:27;;;;;;;24.92;22.23;;;;;;;-143.10;89.50;50971.53;4777933;29;20155;-68
2022/07/08 12:13:16;;;;;;;26.98;22.30;;;;;;;-143.10;90.25;51008.72;4778248;29;20147;-68
2022/07/08 12:15:59;;;;;;;26.02;23.25;;;;;;;-143.10;90.51;50991.09;4764967;30;20078;-70
2022/07/08 12:18:49;;;;;;;27.65;23.30;;;;;;;-143.10;90.19;50987.19;4774324;29;20402;-69
2022/07/08 12:21:32;;;;;;;29.10;22.95;;;;;;;-143.10;91.03;50987.19;4760660;30;20130;-67
2022/07/08 12:24:36;;;;;;;28.88;24.63;;;;;;;-143.10;92.11;50998.94;4775296;29;20078;-66
2022/07/08 12:27:17;;;;;;;29.10;25.27;;;;;;;-143.10;91.44;50983.28;4761291;30;20165;-68
2022/07/08 12:30:11;;;;;;;27.45;22.75;;;;;;;-143.10;92.26;50983.28;4761424;30;20401;-65
2022/07/08 12:33:03;;;;;;;27.95;24.05;;;;;;;-143.10;90.15;50996.97;4757603;29;20324;-68
2022/07/08 12:36:05;;;;;;;27.85;23.73;;;;;;;-143.10;91.23;50991.09;4774878;29;20079;-66
2022/07/08 12:38:55;;;;;;;27.70;22.05;;;;;;;-143.10;91.48;51002.84;4776103;30;20269;-66
2022/07/08 12:41:37;;;;;;;26.88;22.92;;;;;;;-143.10;90.06;50995.03;4770374;29;20564;-67
2022/07/08 12:44:40;;;;;;;27.33;23.75;;;;;;;-143.10;94.82;50991.09;4784945;29;20112;-68